Terminal Aerodrome Forecast
Issued by NWS Wilmington, OH

Current Version | Previous Version | Graphics & Text | Print | Product List | Glossary On
Versions: 1 2 3 4 5 6 7 8 9 10 11 12 13 14 15 16 17 18 19 20 21 22 23 24 25 26 27 28 29 30 31 32 33 34 35
947
FTUS41 KILN 161730
TAFCVG
TAF
KCVG 161730Z 1618/1724 32015G24KT 4SM BR BKN017 OVC080
     FM162000 35011G18KT P6SM BKN025
     FM170300 03005KT P6SM BKN025
     FM171400 17006KT P6SM VCSH SCT050 OVC090
     FM171800 18008KT P6SM -RASN BKN025 OVC050
     FM172200 19007KT P6SM VCSH SCT050 OVC090=

USA.gov is the U.S. government's official web portal to all federal, state and local government web resources and services.